sensor_id;sensor_type;location;lat;lon;timestamp;temperature;humidity
16907;DHT22;8570;52.380;4.654;2024-01-15T00:04:43;3.90;99.90
16907;DHT22;8570;52.380;4.654;2024-01-15T00:09:45;3.90;99.90
16907;DHT22;8570;52.380;4.654;2024-01-15T00:14:48;3.90;99.90
16907;DHT22;8570;52.380;4.654;2024-01-15T00:19:55;3.90;99.90
16907;DHT22;8570;52.380;4.654;2024-01-15T00:24:56;3.90;99.90
16907;DHT22;8570;52.380;4.654;2024-01-15T00:30:07;3.90;99.90
16907;DHT22;8570;52.380;4.654;2024-01-15T00:35:15;3.80;99.90
16907;DHT22;8570;52.380;4.654;2024-01-15T00:40:19;3.80;99.90
16907;DHT22;8570;52.380;4.654;2024-01-15T00:45:26;3.80;99.90
16907;DHT22;8570;52.380;4.654;2024-01-15T00:50:30;3.90;99.90
16907;DHT22;8570;52.380;4.654;2024-01-15T00:55:32;3.90;99.90
16907;DHT22;8570;52.380;4.654;2024-01-15T01:00:43;3.90;99.90
16907;DHT22;8570;52.380;4.654;2024-01-15T01:05:49;3.90;99.90
16907;DHT22;8570;52.380;4.654;2024-01-15T01:10:52;3.80;99.90
16907;DHT22;8570;52.380;4.654;2024-01-15T01:15:59;3.70;99.90
16907;DHT22;8570;52.380;4.654;2024-01-15T01:21:09;3.60;99.90
16907;DHT22;8570;52.380;4.654;2024-01-15T01:26:15;3.60;99.90
16907;DHT22;8570;52.380;4.654;2024-01-15T01:31:17;3.60;99.90
16907;DHT22;8570;52.380;4.654;2024-01-15T01:36:33;3.60;99.90
16907;DHT22;8570;52.380;4.654;2024-01-15T01:41:35;3.60;99.90
16907;DHT22;8570;52.380;4.654;2024-01-15T01:46:38;3.60;99.90
16907;DHT22;8570;52.380;4.654;2024-01-15T01:51:44;3.70;99.90
16907;DHT22;8570;52.380;4.654;2024-01-15T01:56:47;3.60;99.90
16907;DHT22;8570;52.380;4.654;2024-01-15T02:01:50;3.50;99.90
16907;DHT22;8570;52.380;4.654;2024-01-15T02:06:54;3.50;99.90
16907;DHT22;8570;52.380;4.654;2024-01-15T02:11:56;3.40;99.90
16907;DHT22;8570;52.380;4.654;2024-01-15T02:16:58;3.40;99.90
16907;DHT22;8570;52.380;4.654;2024-01-15T02:22:01;3.50;99.90
16907;DHT22;8570;52.380;4.654;2024-01-15T02:27:04;3.50;99.90
16907;DHT22;8570;52.380;4.654;2024-01-15T02:32:08;3.60;99.90
16907;DHT22;8570;52.380;4.654;2024-01-15T02:37:12;3.60;99.90
16907;DHT22;8570;52.380;4.654;2024-01-15T02:42:20;3.60;99.90
16907;DHT22;8570;52.380;4.654;2024-01-15T02:47:22;3.70;99.90
16907;DHT22;8570;52.380;4.654;2024-01-15T02:52:24;3.70;99.90
16907;DHT22;8570;52.380;4.654;2024-01-15T02:57:27;3.80;99.90
16907;DHT22;8570;52.380;4.654;2024-01-15T03:02:39;3.70;99.90
16907;DHT22;8570;52.380;4.654;2024-01-15T03:07:41;3.70;99.90
16907;DHT22;8570;52.380;4.654;2024-01-15T03:12:46;3.70;99.90
16907;DHT22;8570;52.380;4.654;2024-01-15T03:17:50;3.50;99.90
16907;DHT22;8570;52.380;4.654;2024-01-15T03:22:52;3.40;99.90
16907;DHT22;8570;52.380;4.654;2024-01-15T03:27:56;3.40;99.90
16907;DHT22;8570;52.380;4.654;2024-01-15T03:33:00;3.30;99.90
16907;DHT22;8570;52.380;4.654;2024-01-15T03:38:03;3.20;99.90
16907;DHT22;8570;52.380;4.654;2024-01-15T03:43:06;3.20;99.90
16907;DHT22;8570;52.380;4.654;2024-01-15T03:48:10;3.20;99.90
16907;DHT22;8570;52.380;4.654;2024-01-15T03:53:13;3.10;99.90
16907;DHT22;8570;52.380;4.654;2024-01-15T03:58:19;3.20;99.90
16907;DHT22;8570;52.380;4.654;2024-01-15T04:03:21;3.20;99.90
16907;DHT22;8570;52.380;4.654;2024-01-15T04:08:23;3.20;99.90
16907;DHT22;8570;52.380;4.654;2024-01-15T04:13:32;3.10;99.90
16907;DHT22;8570;52.380;4.654;2024-01-15T04:18:34;3.10;99.90
16907;DHT22;8570;52.380;4.654;2024-01-15T04:23:38;3.00;99.90
16907;DHT22;8570;52.380;4.654;2024-01-15T04:28:44;3.00;99.90
16907;DHT22;8570;52.380;4.654;2024-01-15T04:33:46;2.90;99.90
16907;DHT22;8570;52.380;4.654;2024-01-15T04:39:02;2.90;99.90
16907;DHT22;8570;52.380;4.654;2024-01-15T04:44:09;2.90;99.90
16907;DHT22;8570;52.380;4.654;2024-01-15T04:49:12;2.90;99.90
16907;DHT22;8570;52.380;4.654;2024-01-15T04:54:14;2.80;99.90
16907;DHT22;8570;52.380;4.654;2024-01-15T04:59:20;2.80;99.90
16907;DHT22;8570;52.380;4.654;2024-01-15T05:04:21;2.80;99.90
16907;DHT22;8570;52.380;4.654;2024-01-15T05:09:28;2.90;99.90
16907;DHT22;8570;52.380;4.654;2024-01-15T05:14:33;2.90;99.90
16907;DHT22;8570;52.380;4.654;2024-01-15T05:19:35;3.00;99.90
16907;DHT22;8570;52.380;4.654;2024-01-15T05:24:38;3.00;99.90
16907;DHT22;8570;52.380;4.654;2024-01-15T05:29:42;3.10;99.90
16907;DHT22;8570;52.380;4.654;2024-01-15T05:34:43;3.10;99.90
16907;DHT22;8570;52.380;4.654;2024-01-15T05:39:45;3.10;99.90
16907;DHT22;8570;52.380;4.654;2024-01-15T05:44:49;3.20;99.90
16907;DHT22;8570;52.380;4.654;2024-01-15T05:49:51;3.20;99.90
16907;DHT22;8570;52.380;4.654;2024-01-15T05:54:53;3.30;99.90
16907;DHT22;8570;52.380;4.654;2024-01-15T05:59:59;3.30;99.90
16907;DHT22;8570;52.380;4.654;2024-01-15T06:05:02;3.40;99.90
16907;DHT22;8570;52.380;4.654;2024-01-15T06:10:07;3.40;99.90
16907;DHT22;8570;52.380;4.654;2024-01-15T06:15:11;3.40;99.90
16907;DHT22;8570;52.380;4.654;2024-01-15T06:20:13;3.40;99.90
16907;DHT22;8570;52.380;4.654;2024-01-15T06:25:15;3.40;99.90
16907;DHT22;8570;52.380;4.654;2024-01-15T06:30:18;3.30;99.90
16907;DHT22;8570;52.380;4.654;2024-01-15T06:35:21;3.10;99.90
16907;DHT22;8570;52.380;4.654;2024-01-15T06:40:22;3.10;99.90
16907;DHT22;8570;52.380;4.654;2024-01-15T06:45:27;3.00;99.90
16907;DHT22;8570;52.380;4.654;2024-01-15T06:50:30;3.00;99.90
16907;DHT22;8570;52.380;4.654;2024-01-15T06:55:34;2.90;99.90
16907;DHT22;8570;52.380;4.654;2024-01-15T07:00:37;2.90;99.90
16907;DHT22;8570;52.380;4.654;2024-01-15T07:05:42;2.90;99.90
16907;DHT22;8570;52.380;4.654;2024-01-15T07:10:44;2.90;99.90
16907;DHT22;8570;52.380;4.654;2024-01-15T07:15:50;2.80;99.90
16907;DHT22;8570;52.380;4.654;2024-01-15T07:20:52;3.00;99.90
16907;DHT22;8570;52.380;4.654;2024-01-15T07:25:55;3.10;99.90
16907;DHT22;8570;52.380;4.654;2024-01-15T07:31:01;3.00;99.90
16907;DHT22;8570;52.380;4.654;2024-01-15T07:36:07;3.00;99.90
16907;DHT22;8570;52.380;4.654;2024-01-15T07:41:09;3.00;99.90
16907;DHT22;8570;52.380;4.654;2024-01-15T07:46:12;2.90;99.90
16907;DHT22;8570;52.380;4.654;2024-01-15T07:51:14;2.80;99.90
16907;DHT22;8570;52.380;4.654;2024-01-15T07:56:16;2.80;99.90
16907;DHT22;8570;52.380;4.654;2024-01-15T08:01:20;2.60;99.90
16907;DHT22;8570;52.380;4.654;2024-01-15T08:06:22;2.60;99.90
16907;DHT22;8570;52.380;4.654;2024-01-15T08:11:24;2.60;99.90
16907;DHT22;8570;52.380;4.654;2024-01-15T08:16:27;2.60;99.90
16907;DHT22;8570;52.380;4.654;2024-01-15T08:21:29;2.70;99.90
16907;DHT22;8570;52.380;4.654;2024-01-15T08:26:32;2.70;99.90
16907;DHT22;8570;52.380;4.654;2024-01-15T08:31:35;2.70;99.90
16907;DHT22;8570;52.380;4.654;2024-01-15T08:36:37;2.60;99.90
16907;DHT22;8570;52.380;4.654;2024-01-15T08:41:39;2.60;99.90
16907;DHT22;8570;52.380;4.654;2024-01-15T08:46:42;2.60;99.90
16907;DHT22;8570;52.380;4.654;2024-01-15T08:51:44;2.70;99.90
16907;DHT22;8570;52.380;4.654;2024-01-15T08:56:46;2.70;99.90
16907;DHT22;8570;52.380;4.654;2024-01-15T09:01:49;2.80;99.90
16907;DHT22;8570;52.380;4.654;2024-01-15T09:06:51;2.80;99.90
16907;DHT22;8570;52.380;4.654;2024-01-15T09:11:52;2.80;99.90
16907;DHT22;8570;52.380;4.654;2024-01-15T09:16:56;2.80;99.90
16907;DHT22;8570;52.380;4.654;2024-01-15T09:21:58;2.80;99.90
16907;DHT22;8570;52.380;4.654;2024-01-15T09:26:59;2.90;99.90
16907;DHT22;8570;52.380;4.654;2024-01-15T09:32:03;3.00;99.90
16907;DHT22;8570;52.380;4.654;2024-01-15T09:37:05;3.10;99.90
16907;DHT22;8570;52.380;4.654;2024-01-15T09:42:07;3.20;99.90
16907;DHT22;8570;52.380;4.654;2024-01-15T09:47:10;3.20;99.90
16907;DHT22;8570;52.380;4.654;2024-01-15T09:52:16;3.30;99.90
16907;DHT22;8570;52.380;4.654;2024-01-15T09:57:19;3.30;99.90
16907;DHT22;8570;52.380;4.654;2024-01-15T10:02:22;3.30;99.90
16907;DHT22;8570;52.380;4.654;2024-01-15T10:07:25;3.30;99.90
16907;DHT22;8570;52.380;4.654;2024-01-15T10:12:28;3.30;99.90
16907;DHT22;8570;52.380;4.654;2024-01-15T10:17:31;3.40;99.90
16907;DHT22;8570;52.380;4.654;2024-01-15T10:22:33;3.50;99.90
16907;DHT22;8570;52.380;4.654;2024-01-15T10:27:36;3.40;99.90
16907;DHT22;8570;52.380;4.654;2024-01-15T10:32:39;3.30;99.90
16907;DHT22;8570;52.380;4.654;2024-01-15T10:37:41;3.20;99.90
16907;DHT22;8570;52.380;4.654;2024-01-15T10:42:43;3.20;99.90
16907;DHT22;8570;52.380;4.654;2024-01-15T10:47:47;3.20;99.90
16907;DHT22;8570;52.380;4.654;2024-01-15T10:52:51;3.20;99.90
16907;DHT22;8570;52.380;4.654;2024-01-15T10:57:54;3.20;99.90
16907;DHT22;8570;52.380;4.654;2024-01-15T11:03:09;3.10;99.90
16907;DHT22;8570;52.380;4.654;2024-01-15T11:08:12;3.10;99.90
16907;DHT22;8570;52.380;4.654;2024-01-15T11:13:15;3.00;99.90
16907;DHT22;8570;52.380;4.654;2024-01-15T11:18:18;3.00;99.90
16907;DHT22;8570;52.380;4.654;2024-01-15T11:23:41;3.00;99.90
16907;DHT22;8570;52.380;4.654;2024-01-15T11:28:50;3.00;99.90
16907;DHT22;8570;52.380;4.654;2024-01-15T11:33:53;3.10;99.90
16907;DHT22;8570;52.380;4.654;2024-01-15T11:38:55;3.20;99.90
16907;DHT22;8570;52.380;4.654;2024-01-15T11:43:59;3.40;99.90
16907;DHT22;8570;52.380;4.654;2024-01-15T11:49:03;3.50;99.90
16907;DHT22;8570;52.380;4.654;2024-01-15T11:54:08;3.50;99.90
16907;DHT22;8570;52.380;4.654;2024-01-15T11:59:12;3.60;99.90
16907;DHT22;8570;52.380;4.654;2024-01-15T12:04:15;3.60;99.90
16907;DHT22;8570;52.380;4.654;2024-01-15T12:09:20;3.70;99.90
16907;DHT22;8570;52.380;4.654;2024-01-15T12:14:25;3.80;99.90
16907;DHT22;8570;52.380;4.654;2024-01-15T12:19:34;3.80;99.90
16907;DHT22;8570;52.380;4.654;2024-01-15T12:24:36;3.80;99.90
16907;DHT22;8570;52.380;4.654;2024-01-15T12:29:38;3.80;99.90
16907;DHT22;8570;52.380;4.654;2024-01-15T12:34:41;4.00;99.90
16907;DHT22;8570;52.380;4.654;2024-01-15T12:39:44;4.20;99.90
16907;DHT22;8570;52.380;4.654;2024-01-15T12:44:46;4.30;99.90
16907;DHT22;8570;52.380;4.654;2024-01-15T12:49:51;4.40;99.90
16907;DHT22;8570;52.380;4.654;2024-01-15T12:54:55;4.30;99.90
16907;DHT22;8570;52.380;4.654;2024-01-15T12:59:56;4.20;99.90
16907;DHT22;8570;52.380;4.654;2024-01-15T13:05:00;4.10;99.90
16907;DHT22;8570;52.380;4.654;2024-01-15T13:10:05;4.00;99.90
16907;DHT22;8570;52.380;4.654;2024-01-15T13:15:07;3.90;99.90
16907;DHT22;8570;52.380;4.654;2024-01-15T13:20:14;3.90;99.90
16907;DHT22;8570;52.380;4.654;2024-01-15T13:25:15;3.80;99.90
16907;DHT22;8570;52.380;4.654;2024-01-15T13:30:17;3.90;99.90
16907;DHT22;8570;52.380;4.654;2024-01-15T13:35:21;4.00;99.90
16907;DHT22;8570;52.380;4.654;2024-01-15T13:40:22;4.00;99.90
16907;DHT22;8570;52.380;4.654;2024-01-15T13:45:25;4.10;99.90
16907;DHT22;8570;52.380;4.654;2024-01-15T13:50:28;4.10;99.90
16907;DHT22;8570;52.380;4.654;2024-01-15T13:55:30;4.10;99.90
16907;DHT22;8570;52.380;4.654;2024-01-15T14:00:32;4.20;99.90
16907;DHT22;8570;52.380;4.654;2024-01-15T14:05:36;4.30;99.90
16907;DHT22;8570;52.380;4.654;2024-01-15T14:10:39;4.30;99.90
16907;DHT22;8570;52.380;4.654;2024-01-15T14:15:40;4.30;99.90
16907;DHT22;8570;52.380;4.654;2024-01-15T14:20:44;4.20;99.90
16907;DHT22;8570;52.380;4.654;2024-01-15T14:25:45;4.10;99.90
16907;DHT22;8570;52.380;4.654;2024-01-15T14:30:47;4.00;99.90
16907;DHT22;8570;52.380;4.654;2024-01-15T14:35:50;4.00;99.90
16907;DHT22;8570;52.380;4.654;2024-01-15T14:40:52;4.00;99.90
16907;DHT22;8570;52.380;4.654;2024-01-15T14:45:54;3.90;99.90
16907;DHT22;8570;52.380;4.654;2024-01-15T14:50:58;3.90;99.90
16907;DHT22;8570;52.380;4.654;2024-01-15T14:56:00;4.00;99.90
16907;DHT22;8570;52.380;4.654;2024-01-15T15:01:03;4.00;99.90
16907;DHT22;8570;52.380;4.654;2024-01-15T15:06:12;4.00;99.90
16907;DHT22;8570;52.380;4.654;2024-01-15T15:11:16;4.00;99.90
16907;DHT22;8570;52.380;4.654;2024-01-15T15:16:21;4.00;99.90
16907;DHT22;8570;52.380;4.654;2024-01-15T15:21:25;4.00;99.90
16907;DHT22;8570;52.380;4.654;2024-01-15T15:26:27;4.00;99.90
16907;DHT22;8570;52.380;4.654;2024-01-15T15:31:29;3.90;99.90
16907;DHT22;8570;52.380;4.654;2024-01-15T15:36:32;3.90;99.90
16907;DHT22;8570;52.380;4.654;2024-01-15T15:41:34;3.80;99.90
16907;DHT22;8570;52.380;4.654;2024-01-15T15:46:38;3.80;99.90
16907;DHT22;8570;52.380;4.654;2024-01-15T15:51:41;3.70;99.90
16907;DHT22;8570;52.380;4.654;2024-01-15T15:56:43;3.60;99.90
16907;DHT22;8570;52.380;4.654;2024-01-15T16:01:48;3.60;99.90
16907;DHT22;8570;52.380;4.654;2024-01-15T16:06:51;3.50;99.90
16907;DHT22;8570;52.380;4.654;2024-01-15T16:11:54;3.50;99.90
16907;DHT22;8570;52.380;4.654;2024-01-15T16:16:59;3.50;99.90
16907;DHT22;8570;52.380;4.654;2024-01-15T16:22:05;3.40;99.90
16907;DHT22;8570;52.380;4.654;2024-01-15T16:27:09;3.40;99.90
16907;DHT22;8570;52.380;4.654;2024-01-15T16:32:10;3.30;99.90
16907;DHT22;8570;52.380;4.654;2024-01-15T16:37:14;3.30;99.90
16907;DHT22;8570;52.380;4.654;2024-01-15T16:42:15;3.20;99.90
16907;DHT22;8570;52.380;4.654;2024-01-15T16:47:17;3.20;99.90
16907;DHT22;8570;52.380;4.654;2024-01-15T16:52:21;3.00;99.90
16907;DHT22;8570;52.380;4.654;2024-01-15T16:57:23;3.00;99.90
16907;DHT22;8570;52.380;4.654;2024-01-15T17:02:25;3.10;99.90
16907;DHT22;8570;52.380;4.654;2024-01-15T17:07:28;3.10;99.90
16907;DHT22;8570;52.380;4.654;2024-01-15T17:12:30;3.10;99.90
16907;DHT22;8570;52.380;4.654;2024-01-15T17:17:32;3.20;99.90
16907;DHT22;8570;52.380;4.654;2024-01-15T17:22:36;3.20;99.90
16907;DHT22;8570;52.380;4.654;2024-01-15T17:27:38;3.20;99.90
16907;DHT22;8570;52.380;4.654;2024-01-15T17:32:40;3.20;99.90
16907;DHT22;8570;52.380;4.654;2024-01-15T17:37:43;3.20;99.90
16907;DHT22;8570;52.380;4.654;2024-01-15T17:42:45;3.20;99.90
16907;DHT22;8570;52.380;4.654;2024-01-15T17:47:47;3.20;99.90
16907;DHT22;8570;52.380;4.654;2024-01-15T17:52:51;3.30;99.90
16907;DHT22;8570;52.380;4.654;2024-01-15T17:57:53;3.30;99.90
16907;DHT22;8570;52.380;4.654;2024-01-15T18:02:55;3.40;99.90
16907;DHT22;8570;52.380;4.654;2024-01-15T18:07:58;3.40;99.90
16907;DHT22;8570;52.380;4.654;2024-01-15T18:13:00;3.50;99.90
16907;DHT22;8570;52.380;4.654;2024-01-15T18:18:02;3.50;99.90
16907;DHT22;8570;52.380;4.654;2024-01-15T18:23:06;3.60;99.90
16907;DHT22;8570;52.380;4.654;2024-01-15T18:28:08;3.50;99.90
16907;DHT22;8570;52.380;4.654;2024-01-15T18:33:10;3.60;99.90
16907;DHT22;8570;52.380;4.654;2024-01-15T18:38:14;3.60;99.90
16907;DHT22;8570;52.380;4.654;2024-01-15T18:43:16;3.50;99.90
16907;DHT22;8570;52.380;4.654;2024-01-15T18:48:20;3.50;99.90
16907;DHT22;8570;52.380;4.654;2024-01-15T18:53:24;3.30;99.90
16907;DHT22;8570;52.380;4.654;2024-01-15T18:58:40;3.20;99.90
16907;DHT22;8570;52.380;4.654;2024-01-15T19:03:44;3.00;99.90
16907;DHT22;8570;52.380;4.654;2024-01-15T19:08:59;2.90;99.90
16907;DHT22;8570;52.380;4.654;2024-01-15T19:14:10;2.90;99.90
16907;DHT22;8570;52.380;4.654;2024-01-15T19:19:12;2.90;99.90
16907;DHT22;8570;52.380;4.654;2024-01-15T19:24:23;2.90;99.90
16907;DHT22;8570;52.380;4.654;2024-01-15T19:29:30;2.90;99.90
16907;DHT22;8570;52.380;4.654;2024-01-15T19:34:44;2.90;99.90
16907;DHT22;8570;52.380;4.654;2024-01-15T19:39:56;2.80;99.90
16907;DHT22;8570;52.380;4.654;2024-01-15T19:45:01;2.90;99.90
16907;DHT22;8570;52.380;4.654;2024-01-15T19:50:05;2.90;99.90
16907;DHT22;8570;52.380;4.654;2024-01-15T19:55:09;3.00;99.90
16907;DHT22;8570;52.380;4.654;2024-01-15T20:00:21;2.90;99.90
16907;DHT22;8570;52.380;4.654;2024-01-15T20:05:23;2.90;99.90
16907;DHT22;8570;52.380;4.654;2024-01-15T20:10:27;2.80;99.90
16907;DHT22;8570;52.380;4.654;2024-01-15T20:15:28;2.80;99.90
16907;DHT22;8570;52.380;4.654;2024-01-15T20:20:34;2.80;99.90
16907;DHT22;8570;52.380;4.654;2024-01-15T20:25:37;2.70;99.90
16907;DHT22;8570;52.380;4.654;2024-01-15T20:30:42;2.70;99.90
16907;DHT22;8570;52.380;4.654;2024-01-15T20:35:45;2.60;99.90
16907;DHT22;8570;52.380;4.654;2024-01-15T20:40:48;2.60;99.90
16907;DHT22;8570;52.380;4.654;2024-01-15T20:46:01;2.50;99.90
16907;DHT22;8570;52.380;4.654;2024-01-15T20:51:05;2.60;99.90
16907;DHT22;8570;52.380;4.654;2024-01-15T20:56:08;2.60;99.90
16907;DHT22;8570;52.380;4.654;2024-01-15T21:01:16;2.60;99.90
16907;DHT22;8570;52.380;4.654;2024-01-15T21:06:18;2.60;99.90
16907;DHT22;8570;52.380;4.654;2024-01-15T21:11:22;2.60;99.90
16907;DHT22;8570;52.380;4.654;2024-01-15T21:16:24;2.60;99.90
16907;DHT22;8570;52.380;4.654;2024-01-15T21:21:26;2.60;99.90
16907;DHT22;8570;52.380;4.654;2024-01-15T21:26:31;2.60;99.90
16907;DHT22;8570;52.380;4.654;2024-01-15T21:31:36;2.60;99.90
16907;DHT22;8570;52.380;4.654;2024-01-15T21:36:38;2.70;99.90
16907;DHT22;8570;52.380;4.654;2024-01-15T21:41:42;2.70;99.90
16907;DHT22;8570;52.380;4.654;2024-01-15T21:46:44;2.70;99.90
16907;DHT22;8570;52.380;4.654;2024-01-15T21:51:47;2.70;99.90
16907;DHT22;8570;52.380;4.654;2024-01-15T21:56:52;2.70;99.90
16907;DHT22;8570;52.380;4.654;2024-01-15T22:01:55;2.70;99.90
16907;DHT22;8570;52.380;4.654;2024-01-15T22:07:00;2.70;99.90
16907;DHT22;8570;52.380;4.654;2024-01-15T22:12:06;2.70;99.90
16907;DHT22;8570;52.380;4.654;2024-01-15T22:17:11;2.70;99.90
16907;DHT22;8570;52.380;4.654;2024-01-15T22:22:16;2.70;99.90
16907;DHT22;8570;52.380;4.654;2024-01-15T22:27:19;2.70;99.90
16907;DHT22;8570;52.380;4.654;2024-01-15T22:32:21;2.70;99.90
16907;DHT22;8570;52.380;4.654;2024-01-15T22:37:24;2.80;99.90
16907;DHT22;8570;52.380;4.654;2024-01-15T22:42:36;2.80;99.90
16907;DHT22;8570;52.380;4.654;2024-01-15T22:47:40;2.80;99.90
16907;DHT22;8570;52.380;4.654;2024-01-15T22:52:43;2.80;99.90
16907;DHT22;8570;52.380;4.654;2024-01-15T22:57:57;2.80;99.90
16907;DHT22;8570;52.380;4.654;2024-01-15T23:03:05;2.90;99.90
16907;DHT22;8570;52.380;4.654;2024-01-15T23:08:07;2.90;99.90
16907;DHT22;8570;52.380;4.654;2024-01-15T23:13:11;2.90;99.90
16907;DHT22;8570;52.380;4.654;2024-01-15T23:18:14;2.90;99.90
16907;DHT22;8570;52.380;4.654;2024-01-15T23:23:16;2.90;99.90
16907;DHT22;8570;52.380;4.654;2024-01-15T23:28:23;2.90;99.90
16907;DHT22;8570;52.380;4.654;2024-01-15T23:33:25;2.90;99.90
16907;DHT22;8570;52.380;4.654;2024-01-15T23:38:33;3.00;99.90
16907;DHT22;8570;52.380;4.654;2024-01-15T23:43:40;3.00;99.90
16907;DHT22;8570;52.380;4.654;2024-01-15T23:48:42;3.00;99.90
16907;DHT22;8570;52.380;4.654;2024-01-15T23:53:44;2.90;99.90
16907;DHT22;8570;52.380;4.654;2024-01-15T23:58:57;2.90;99.90
